sensor_id;sensor_type;location;lat;lon;timestamp;P1;durP1;ratioP1;P2;durP2;ratioP2
15699;SDS011;7950;42.744;23.174;2024-01-16T00:01:26;7.27;;;6.20;;
15699;SDS011;7950;42.744;23.174;2024-01-16T00:03:55;7.27;;;6.30;;
15699;SDS011;7950;42.744;23.174;2024-01-16T00:06:24;9.53;;;7.60;;
15699;SDS011;7950;42.744;23.174;2024-01-16T00:08:56;10.23;;;6.20;;
15699;SDS011;7950;42.744;23.174;2024-01-16T00:11:24;7.13;;;3.87;;
15699;SDS011;7950;42.744;23.174;2024-01-16T00:13:53;7.43;;;3.10;;
15699;SDS011;7950;42.744;23.174;2024-01-16T00:16:21;17.37;;;9.20;;
15699;SDS011;7950;42.744;23.174;2024-01-16T00:18:51;19.73;;;10.30;;
15699;SDS011;7950;42.744;23.174;2024-01-16T00:21:20;11.03;;;6.60;;
15699;SDS011;7950;42.744;23.174;2024-01-16T00:23:48;8.90;;;5.70;;
15699;SDS011;7950;42.744;23.174;2024-01-16T00:26:20;20.63;;;11.57;;
15699;SDS011;7950;42.744;23.174;2024-01-16T00:28:49;18.50;;;10.67;;
15699;SDS011;7950;42.744;23.174;2024-01-16T00:31:18;8.63;;;6.13;;
15699;SDS011;7950;42.744;23.174;2024-01-16T00:33:47;6.90;;;5.17;;
15699;SDS011;7950;42.744;23.174;2024-01-16T00:36:17;11.97;;;7.63;;
15699;SDS011;7950;42.744;23.174;2024-01-16T00:38:46;11.10;;;7.70;;
15699;SDS011;7950;42.744;23.174;2024-01-16T00:41:15;10.23;;;6.93;;
15699;SDS011;7950;42.744;23.174;2024-01-16T00:43:43;9.93;;;6.57;;
15699;SDS011;7950;42.744;23.174;2024-01-16T00:46:12;9.37;;;6.47;;
15699;SDS011;7950;42.744;23.174;2024-01-16T00:48:41;10.63;;;6.87;;
15699;SDS011;7950;42.744;23.174;2024-01-16T00:51:09;8.93;;;5.87;;
15699;SDS011;7950;42.744;23.174;2024-01-16T00:53:41;9.53;;;6.23;;
15699;SDS011;7950;42.744;23.174;2024-01-16T00:56:10;11.30;;;7.60;;
15699;SDS011;7950;42.744;23.174;2024-01-16T00:58:39;12.27;;;7.67;;
15699;SDS011;7950;42.744;23.174;2024-01-16T01:01:08;8.87;;;6.93;;
15699;SDS011;7950;42.744;23.174;2024-01-16T01:03:36;11.03;;;6.23;;
15699;SDS011;7950;42.744;23.174;2024-01-16T01:06:05;9.50;;;6.67;;
15699;SDS011;7950;42.744;23.174;2024-01-16T01:08:34;10.10;;;7.07;;
15699;SDS011;7950;42.744;23.174;2024-01-16T01:11:04;10.97;;;6.87;;
15699;SDS011;7950;42.744;23.174;2024-01-16T01:13:33;10.57;;;6.97;;
15699;SDS011;7950;42.744;23.174;2024-01-16T01:16:01;8.40;;;6.00;;
15699;SDS011;7950;42.744;23.174;2024-01-16T01:18:30;5.33;;;2.90;;
15699;SDS011;7950;42.744;23.174;2024-01-16T01:20:59;2.77;;;2.30;;
15699;SDS011;7950;42.744;23.174;2024-01-16T01:23:27;3.03;;;2.17;;
15699;SDS011;7950;42.744;23.174;2024-01-16T01:25:56;2.83;;;2.03;;
15699;SDS011;7950;42.744;23.174;2024-01-16T01:28:26;4.17;;;2.20;;
15699;SDS011;7950;42.744;23.174;2024-01-16T01:30:54;2.33;;;2.03;;
15699;SDS011;7950;42.744;23.174;2024-01-16T01:33:23;2.90;;;1.90;;
15699;SDS011;7950;42.744;23.174;2024-01-16T01:35:52;2.60;;;1.70;;
15699;SDS011;7950;42.744;23.174;2024-01-16T01:38:20;3.10;;;2.13;;
15699;SDS011;7950;42.744;23.174;2024-01-16T01:40:49;2.50;;;2.00;;
15699;SDS011;7950;42.744;23.174;2024-01-16T01:43:17;2.00;;;1.77;;
15699;SDS011;7950;42.744;23.174;2024-01-16T01:45:53;2.77;;;2.00;;
15699;SDS011;7950;42.744;23.174;2024-01-16T01:48:37;2.20;;;1.80;;
15699;SDS011;7950;42.744;23.174;2024-01-16T01:51:08;2.87;;;1.97;;
15699;SDS011;7950;42.744;23.174;2024-01-16T01:53:38;2.30;;;1.80;;
15699;SDS011;7950;42.744;23.174;2024-01-16T01:56:11;2.87;;;2.00;;
15699;SDS011;7950;42.744;23.174;2024-01-16T01:58:43;4.33;;;2.10;;
15699;SDS011;7950;42.744;23.174;2024-01-16T02:01:16;4.03;;;1.80;;
15699;SDS011;7950;42.744;23.174;2024-01-16T02:03:47;3.13;;;1.93;;
15699;SDS011;7950;42.744;23.174;2024-01-16T02:06:19;2.13;;;1.77;;
15699;SDS011;7950;42.744;23.174;2024-01-16T02:08:48;2.67;;;1.80;;
15699;SDS011;7950;42.744;23.174;2024-01-16T02:11:17;3.53;;;1.87;;
15699;SDS011;7950;42.744;23.174;2024-01-16T02:13:46;1.73;;;1.63;;
15699;SDS011;7950;42.744;23.174;2024-01-16T02:16:19;3.10;;;2.00;;
15699;SDS011;7950;42.744;23.174;2024-01-16T02:18:49;2.17;;;1.97;;
15699;SDS011;7950;42.744;23.174;2024-01-16T02:21:20;2.60;;;2.00;;
15699;SDS011;7950;42.744;23.174;2024-01-16T02:23:53;3.00;;;2.10;;
15699;SDS011;7950;42.744;23.174;2024-01-16T02:26:22;2.57;;;1.83;;
15699;SDS011;7950;42.744;23.174;2024-01-16T02:28:51;3.43;;;2.20;;
15699;SDS011;7950;42.744;23.174;2024-01-16T02:31:20;3.50;;;2.13;;
15699;SDS011;7950;42.744;23.174;2024-01-16T02:33:48;3.20;;;2.30;;
15699;SDS011;7950;42.744;23.174;2024-01-16T02:36:17;3.00;;;2.40;;
15699;SDS011;7950;42.744;23.174;2024-01-16T02:38:46;2.30;;;2.10;;
15699;SDS011;7950;42.744;23.174;2024-01-16T02:41:16;2.13;;;1.93;;
15699;SDS011;7950;42.744;23.174;2024-01-16T02:43:46;5.77;;;3.20;;
15699;SDS011;7950;42.744;23.174;2024-01-16T02:46:14;4.17;;;2.83;;
15699;SDS011;7950;42.744;23.174;2024-01-16T02:48:43;5.80;;;3.70;;
15699;SDS011;7950;42.744;23.174;2024-01-16T02:51:13;2.30;;;2.10;;
15699;SDS011;7950;42.744;23.174;2024-01-16T02:53:42;2.27;;;1.90;;
15699;SDS011;7950;42.744;23.174;2024-01-16T02:56:10;3.40;;;2.67;;
15699;SDS011;7950;42.744;23.174;2024-01-16T02:58:40;2.73;;;2.53;;
15699;SDS011;7950;42.744;23.174;2024-01-16T03:01:09;3.63;;;3.07;;
15699;SDS011;7950;42.744;23.174;2024-01-16T03:03:38;4.13;;;3.20;;
15699;SDS011;7950;42.744;23.174;2024-01-16T03:06:06;4.57;;;3.73;;
15699;SDS011;7950;42.744;23.174;2024-01-16T03:08:35;6.50;;;4.57;;
15699;SDS011;7950;42.744;23.174;2024-01-16T03:11:04;7.30;;;4.73;;
15699;SDS011;7950;42.744;23.174;2024-01-16T03:13:32;5.50;;;4.50;;
15699;SDS011;7950;42.744;23.174;2024-01-16T03:16:02;5.20;;;4.67;;
15699;SDS011;7950;42.744;23.174;2024-01-16T03:18:34;5.43;;;4.50;;
15699;SDS011;7950;42.744;23.174;2024-01-16T03:21:03;4.40;;;4.00;;
15699;SDS011;7950;42.744;23.174;2024-01-16T03:23:34;4.60;;;4.20;;
15699;SDS011;7950;42.744;23.174;2024-01-16T03:26:02;4.80;;;4.30;;
15699;SDS011;7950;42.744;23.174;2024-01-16T03:28:31;4.43;;;4.03;;
15699;SDS011;7950;42.744;23.174;2024-01-16T03:31:00;4.27;;;3.90;;
15699;SDS011;7950;42.744;23.174;2024-01-16T03:33:30;5.20;;;3.53;;
15699;SDS011;7950;42.744;23.174;2024-01-16T03:36:01;3.53;;;3.23;;
15699;SDS011;7950;42.744;23.174;2024-01-16T03:38:29;3.53;;;3.23;;
15699;SDS011;7950;42.744;23.174;2024-01-16T03:40:58;3.43;;;3.13;;
15699;SDS011;7950;42.744;23.174;2024-01-16T03:43:27;3.30;;;2.90;;
15699;SDS011;7950;42.744;23.174;2024-01-16T03:45:56;3.43;;;3.13;;
15699;SDS011;7950;42.744;23.174;2024-01-16T03:48:25;2.90;;;2.70;;
15699;SDS011;7950;42.744;23.174;2024-01-16T03:50:55;3.17;;;2.87;;
15699;SDS011;7950;42.744;23.174;2024-01-16T03:53:24;2.90;;;2.43;;
15699;SDS011;7950;42.744;23.174;2024-01-16T03:55:52;3.13;;;2.87;;
15699;SDS011;7950;42.744;23.174;2024-01-16T03:58:21;2.93;;;2.73;;
15699;SDS011;7950;42.744;23.174;2024-01-16T04:00:50;3.17;;;2.87;;
15699;SDS011;7950;42.744;23.174;2024-01-16T04:03:20;2.97;;;2.50;;
15699;SDS011;7950;42.744;23.174;2024-01-16T04:05:49;2.80;;;2.60;;
15699;SDS011;7950;42.744;23.174;2024-01-16T04:08:19;2.77;;;2.30;;
15699;SDS011;7950;42.744;23.174;2024-01-16T04:10:47;2.20;;;2.00;;
15699;SDS011;7950;42.744;23.174;2024-01-16T04:13:16;2.10;;;1.90;;
15699;SDS011;7950;42.744;23.174;2024-01-16T04:15:44;2.10;;;2.00;;
15699;SDS011;7950;42.744;23.174;2024-01-16T04:18:13;2.40;;;2.10;;
15699;SDS011;7950;42.744;23.174;2024-01-16T04:20:42;2.57;;;2.37;;
15699;SDS011;7950;42.744;23.174;2024-01-16T04:23:10;2.10;;;1.90;;
15699;SDS011;7950;42.744;23.174;2024-01-16T04:25:40;1.90;;;1.80;;
15699;SDS011;7950;42.744;23.174;2024-01-16T04:28:09;2.10;;;2.00;;
15699;SDS011;7950;42.744;23.174;2024-01-16T04:30:37;2.33;;;2.20;;
15699;SDS011;7950;42.744;23.174;2024-01-16T04:33:06;4.07;;;3.77;;
15699;SDS011;7950;42.744;23.174;2024-01-16T04:35:35;2.20;;;2.00;;
15699;SDS011;7950;42.744;23.174;2024-01-16T04:38:03;2.83;;;2.50;;
15699;SDS011;7950;42.744;23.174;2024-01-16T04:40:32;3.17;;;2.87;;
15699;SDS011;7950;42.744;23.174;2024-01-16T04:43:02;3.37;;;2.70;;
15699;SDS011;7950;42.744;23.174;2024-01-16T04:45:31;5.10;;;3.47;;
15699;SDS011;7950;42.744;23.174;2024-01-16T04:48:00;4.27;;;3.10;;
15699;SDS011;7950;42.744;23.174;2024-01-16T04:50:29;3.30;;;3.00;;
15699;SDS011;7950;42.744;23.174;2024-01-16T04:52:59;4.83;;;3.73;;
15699;SDS011;7950;42.744;23.174;2024-01-16T04:55:28;5.70;;;4.43;;
15699;SDS011;7950;42.744;23.174;2024-01-16T04:57:57;4.93;;;3.80;;
15699;SDS011;7950;42.744;23.174;2024-01-16T05:00:28;11.47;;;6.50;;
15699;SDS011;7950;42.744;23.174;2024-01-16T05:02:57;8.13;;;5.07;;
15699;SDS011;7950;42.744;23.174;2024-01-16T05:05:26;5.97;;;4.40;;
15699;SDS011;7950;42.744;23.174;2024-01-16T05:07:55;7.03;;;3.87;;
15699;SDS011;7950;42.744;23.174;2024-01-16T05:10:24;2.73;;;2.53;;
15699;SDS011;7950;42.744;23.174;2024-01-16T05:12:53;2.30;;;2.10;;
15699;SDS011;7950;42.744;23.174;2024-01-16T05:15:21;2.00;;;1.80;;
15699;SDS011;7950;42.744;23.174;2024-01-16T05:17:51;2.20;;;2.00;;
15699;SDS011;7950;42.744;23.174;2024-01-16T05:20:21;2.03;;;1.83;;
15699;SDS011;7950;42.744;23.174;2024-01-16T05:22:49;2.40;;;1.77;;
15699;SDS011;7950;42.744;23.174;2024-01-16T05:25:18;5.67;;;4.07;;
15699;SDS011;7950;42.744;23.174;2024-01-16T05:27:47;3.33;;;2.50;;
15699;SDS011;7950;42.744;23.174;2024-01-16T05:30:16;2.10;;;1.90;;
15699;SDS011;7950;42.744;23.174;2024-01-16T05:32:45;1.87;;;1.77;;
15699;SDS011;7950;42.744;23.174;2024-01-16T05:35:16;1.70;;;1.60;;
15699;SDS011;7950;42.744;23.174;2024-01-16T05:37:46;1.87;;;1.70;;
15699;SDS011;7950;42.744;23.174;2024-01-16T05:40:14;1.70;;;1.60;;
15699;SDS011;7950;42.744;23.174;2024-01-16T05:42:43;2.23;;;2.03;;
15699;SDS011;7950;42.744;23.174;2024-01-16T05:45:11;1.70;;;1.60;;
15699;SDS011;7950;42.744;23.174;2024-01-16T05:47:41;2.00;;;1.80;;
15699;SDS011;7950;42.744;23.174;2024-01-16T05:50:09;1.90;;;1.80;;
15699;SDS011;7950;42.744;23.174;2024-01-16T05:52:39;2.30;;;2.10;;
15699;SDS011;7950;42.744;23.174;2024-01-16T05:55:12;2.10;;;2.00;;
15699;SDS011;7950;42.744;23.174;2024-01-16T05:57:41;1.83;;;1.60;;
15699;SDS011;7950;42.744;23.174;2024-01-16T06:00:10;1.63;;;1.53;;
15699;SDS011;7950;42.744;23.174;2024-01-16T06:02:40;1.73;;;1.63;;
15699;SDS011;7950;42.744;23.174;2024-01-16T06:05:09;1.80;;;1.70;;
15699;SDS011;7950;42.744;23.174;2024-01-16T06:07:38;1.63;;;1.40;;
15699;SDS011;7950;42.744;23.174;2024-01-16T06:10:08;1.80;;;1.70;;
15699;SDS011;7950;42.744;23.174;2024-01-16T06:12:39;1.73;;;1.63;;
15699;SDS011;7950;42.744;23.174;2024-01-16T06:15:08;2.20;;;2.00;;
15699;SDS011;7950;42.744;23.174;2024-01-16T06:17:38;2.70;;;2.47;;
15699;SDS011;7950;42.744;23.174;2024-01-16T06:20:07;2.60;;;2.30;;
15699;SDS011;7950;42.744;23.174;2024-01-16T06:22:37;1.80;;;1.70;;
15699;SDS011;7950;42.744;23.174;2024-01-16T06:25:07;2.10;;;1.60;;
15699;SDS011;7950;42.744;23.174;2024-01-16T06:27:36;2.00;;;1.80;;
15699;SDS011;7950;42.744;23.174;2024-01-16T06:30:05;2.90;;;2.10;;
15699;SDS011;7950;42.744;23.174;2024-01-16T06:32:35;2.10;;;1.90;;
15699;SDS011;7950;42.744;23.174;2024-01-16T06:35:04;2.00;;;1.90;;
15699;SDS011;7950;42.744;23.174;2024-01-16T06:37:34;1.60;;;1.50;;
15699;SDS011;7950;42.744;23.174;2024-01-16T06:40:04;1.70;;;1.60;;
15699;SDS011;7950;42.744;23.174;2024-01-16T06:42:35;1.93;;;1.67;;
15699;SDS011;7950;42.744;23.174;2024-01-16T06:45:04;1.70;;;1.60;;
15699;SDS011;7950;42.744;23.174;2024-01-16T06:47:34;1.73;;;1.63;;
15699;SDS011;7950;42.744;23.174;2024-01-16T06:50:03;1.40;;;1.30;;
15699;SDS011;7950;42.744;23.174;2024-01-16T06:52:34;1.83;;;1.73;;
15699;SDS011;7950;42.744;23.174;2024-01-16T06:55:03;1.70;;;1.60;;
15699;SDS011;7950;42.744;23.174;2024-01-16T06:57:33;1.60;;;1.50;;
15699;SDS011;7950;42.744;23.174;2024-01-16T07:00:02;1.60;;;1.50;;
15699;SDS011;7950;42.744;23.174;2024-01-16T07:02:33;1.57;;;1.47;;
15699;SDS011;7950;42.744;23.174;2024-01-16T07:05:02;1.87;;;1.77;;
15699;SDS011;7950;42.744;23.174;2024-01-16T07:07:32;1.50;;;1.40;;
15699;SDS011;7950;42.744;23.174;2024-01-16T07:10:00;1.57;;;1.47;;
15699;SDS011;7950;42.744;23.174;2024-01-16T07:12:29;1.80;;;1.70;;
15699;SDS011;7950;42.744;23.174;2024-01-16T07:14:59;2.07;;;1.87;;
15699;SDS011;7950;42.744;23.174;2024-01-16T07:17:27;2.10;;;1.90;;
15699;SDS011;7950;42.744;23.174;2024-01-16T07:19:56;2.67;;;1.80;;
15699;SDS011;7950;42.744;23.174;2024-01-16T07:22:25;1.57;;;1.43;;
15699;SDS011;7950;42.744;23.174;2024-01-16T07:24:54;2.10;;;1.90;;
15699;SDS011;7950;42.744;23.174;2024-01-16T07:27:23;1.70;;;1.60;;
15699;SDS011;7950;42.744;23.174;2024-01-16T07:29:51;1.73;;;1.63;;
15699;SDS011;7950;42.744;23.174;2024-01-16T07:32:21;1.80;;;1.70;;
15699;SDS011;7950;42.744;23.174;2024-01-16T07:34:50;2.30;;;1.60;;
15699;SDS011;7950;42.744;23.174;2024-01-16T07:37:19;1.50;;;1.40;;
15699;SDS011;7950;42.744;23.174;2024-01-16T07:39:47;2.57;;;1.70;;
15699;SDS011;7950;42.744;23.174;2024-01-16T07:42:16;1.60;;;1.50;;
15699;SDS011;7950;42.744;23.174;2024-01-16T07:44:44;1.60;;;1.50;;
15699;SDS011;7950;42.744;23.174;2024-01-16T07:47:13;1.93;;;1.50;;
15699;SDS011;7950;42.744;23.174;2024-01-16T07:49:43;1.40;;;1.30;;
15699;SDS011;7950;42.744;23.174;2024-01-16T07:52:12;1.63;;;1.53;;
15699;SDS011;7950;42.744;23.174;2024-01-16T07:54:40;1.90;;;1.80;;
15699;SDS011;7950;42.744;23.174;2024-01-16T07:57:09;2.50;;;2.00;;
15699;SDS011;7950;42.744;23.174;2024-01-16T07:59:38;1.63;;;1.53;;
15699;SDS011;7950;42.744;23.174;2024-01-16T08:02:07;2.37;;;2.10;;
15699;SDS011;7950;42.744;23.174;2024-01-16T08:04:36;1.63;;;1.50;;
15699;SDS011;7950;42.744;23.174;2024-01-16T08:07:06;1.60;;;1.50;;
15699;SDS011;7950;42.744;23.174;2024-01-16T08:09:35;1.80;;;1.67;;
15699;SDS011;7950;42.744;23.174;2024-01-16T08:12:04;1.33;;;1.20;;
15699;SDS011;7950;42.744;23.174;2024-01-16T08:14:34;1.47;;;1.37;;
15699;SDS011;7950;42.744;23.174;2024-01-16T08:17:02;1.40;;;1.33;;
15699;SDS011;7950;42.744;23.174;2024-01-16T08:19:31;1.60;;;1.50;;
15699;SDS011;7950;42.744;23.174;2024-01-16T08:22:00;1.43;;;1.30;;
15699;SDS011;7950;42.744;23.174;2024-01-16T08:24:34;1.40;;;1.30;;
15699;SDS011;7950;42.744;23.174;2024-01-16T08:27:04;2.80;;;1.40;;
15699;SDS011;7950;42.744;23.174;2024-01-16T08:29:32;1.47;;;1.30;;
15699;SDS011;7950;42.744;23.174;2024-01-16T08:32:01;1.70;;;1.40;;
15699;SDS011;7950;42.744;23.174;2024-01-16T08:34:30;1.40;;;1.30;;
15699;SDS011;7950;42.744;23.174;2024-01-16T08:36:59;1.53;;;1.30;;
15699;SDS011;7950;42.744;23.174;2024-01-16T08:39:27;1.60;;;1.50;;
15699;SDS011;7950;42.744;23.174;2024-01-16T08:42:00;1.83;;;1.50;;
15699;SDS011;7950;42.744;23.174;2024-01-16T08:44:29;1.50;;;1.40;;
15699;SDS011;7950;42.744;23.174;2024-01-16T08:46:58;1.70;;;1.60;;
15699;SDS011;7950;42.744;23.174;2024-01-16T08:49:28;4.10;;;2.30;;
15699;SDS011;7950;42.744;23.174;2024-01-16T08:51:57;1.83;;;1.73;;
15699;SDS011;7950;42.744;23.174;2024-01-16T08:54:26;1.80;;;1.70;;
15699;SDS011;7950;42.744;23.174;2024-01-16T08:56:54;1.97;;;1.70;;
15699;SDS011;7950;42.744;23.174;2024-01-16T08:59:25;1.37;;;1.20;;
15699;SDS011;7950;42.744;23.174;2024-01-16T09:01:55;1.73;;;1.50;;
15699;SDS011;7950;42.744;23.174;2024-01-16T09:04:23;4.60;;;1.50;;
15699;SDS011;7950;42.744;23.174;2024-01-16T09:06:52;1.50;;;1.40;;
15699;SDS011;7950;42.744;23.174;2024-01-16T09:09:20;1.40;;;1.30;;
15699;SDS011;7950;42.744;23.174;2024-01-16T09:11:49;1.60;;;1.50;;
15699;SDS011;7950;42.744;23.174;2024-01-16T09:14:18;2.53;;;1.60;;
15699;SDS011;7950;42.744;23.174;2024-01-16T09:16:49;1.70;;;1.60;;
15699;SDS011;7950;42.744;23.174;2024-01-16T09:19:17;1.70;;;1.60;;
15699;SDS011;7950;42.744;23.174;2024-01-16T09:21:46;1.87;;;1.70;;
15699;SDS011;7950;42.744;23.174;2024-01-16T09:24:15;1.50;;;1.40;;
15699;SDS011;7950;42.744;23.174;2024-01-16T09:26:45;1.50;;;1.33;;
15699;SDS011;7950;42.744;23.174;2024-01-16T09:29:13;1.40;;;1.30;;
15699;SDS011;7950;42.744;23.174;2024-01-16T09:31:42;1.70;;;1.60;;
15699;SDS011;7950;42.744;23.174;2024-01-16T09:34:12;2.70;;;1.80;;
15699;SDS011;7950;42.744;23.174;2024-01-16T09:36:41;1.70;;;1.60;;
15699;SDS011;7950;42.744;23.174;2024-01-16T09:39:10;1.90;;;1.70;;
15699;SDS011;7950;42.744;23.174;2024-01-16T09:41:44;1.40;;;1.30;;
15699;SDS011;7950;42.744;23.174;2024-01-16T09:44:13;1.70;;;1.53;;
15699;SDS011;7950;42.744;23.174;2024-01-16T09:46:42;1.70;;;1.43;;
15699;SDS011;7950;42.744;23.174;2024-01-16T09:49:15;1.50;;;1.40;;
15699;SDS011;7950;42.744;23.174;2024-01-16T09:51:45;1.77;;;1.67;;
15699;SDS011;7950;42.744;23.174;2024-01-16T09:54:14;1.97;;;1.77;;
15699;SDS011;7950;42.744;23.174;2024-01-16T09:56:43;1.70;;;1.60;;
15699;SDS011;7950;42.744;23.174;2024-01-16T09:59:15;1.77;;;1.67;;
15699;SDS011;7950;42.744;23.174;2024-01-16T10:01:45;1.80;;;1.70;;
15699;SDS011;7950;42.744;23.174;2024-01-16T10:04:18;1.60;;;1.50;;
15699;SDS011;7950;42.744;23.174;2024-01-16T10:06:46;1.80;;;1.60;;
15699;SDS011;7950;42.744;23.174;2024-01-16T10:09:19;2.07;;;1.87;;
15699;SDS011;7950;42.744;23.174;2024-01-16T10:11:48;2.43;;;2.00;;
15699;SDS011;7950;42.744;23.174;2024-01-16T10:14:18;1.60;;;1.50;;
15699;SDS011;7950;42.744;23.174;2024-01-16T10:16:57;2.00;;;1.70;;
15699;SDS011;7950;42.744;23.174;2024-01-16T10:19:31;1.77;;;1.67;;
15699;SDS011;7950;42.744;23.174;2024-01-16T10:22:13;2.07;;;1.90;;
15699;SDS011;7950;42.744;23.174;2024-01-16T10:24:58;1.97;;;1.80;;
15699;SDS011;7950;42.744;23.174;2024-01-16T10:27:33;2.27;;;2.00;;
15699;SDS011;7950;42.744;23.174;2024-01-16T10:30:02;2.00;;;1.80;;
15699;SDS011;7950;42.744;23.174;2024-01-16T10:32:32;1.90;;;1.70;;
15699;SDS011;7950;42.744;23.174;2024-01-16T10:35:06;1.90;;;1.80;;
15699;SDS011;7950;42.744;23.174;2024-01-16T10:37:41;2.27;;;1.60;;
15699;SDS011;7950;42.744;23.174;2024-01-16T10:40:14;3.47;;;1.80;;
15699;SDS011;7950;42.744;23.174;2024-01-16T10:42:56;2.80;;;1.60;;
15699;SDS011;7950;42.744;23.174;2024-01-16T10:45:26;1.97;;;1.87;;
15699;SDS011;7950;42.744;23.174;2024-01-16T10:48:00;2.27;;;1.70;;
15699;SDS011;7950;42.744;23.174;2024-01-16T10:50:33;2.17;;;1.97;;
15699;SDS011;7950;42.744;23.174;2024-01-16T10:53:04;2.13;;;1.73;;
15699;SDS011;7950;42.744;23.174;2024-01-16T10:55:37;1.93;;;1.83;;
15699;SDS011;7950;42.744;23.174;2024-01-16T10:58:19;2.00;;;1.80;;
15699;SDS011;7950;42.744;23.174;2024-01-16T11:00:52;2.27;;;1.87;;
15699;SDS011;7950;42.744;23.174;2024-01-16T11:03:24;1.80;;;1.70;;
15699;SDS011;7950;42.744;23.174;2024-01-16T11:06:02;2.13;;;1.90;;
15699;SDS011;7950;42.744;23.174;2024-01-16T11:08:35;2.47;;;2.20;;
15699;SDS011;7950;42.744;23.174;2024-01-16T11:11:05;2.60;;;2.40;;
15699;SDS011;7950;42.744;23.174;2024-01-16T11:13:35;4.57;;;2.03;;
15699;SDS011;7950;42.744;23.174;2024-01-16T11:16:07;2.63;;;2.30;;
15699;SDS011;7950;42.744;23.174;2024-01-16T11:18:38;2.63;;;1.93;;
15699;SDS011;7950;42.744;23.174;2024-01-16T11:21:08;2.13;;;1.80;;
15699;SDS011;7950;42.744;23.174;2024-01-16T11:23:44;3.53;;;2.20;;
15699;SDS011;7950;42.744;23.174;2024-01-16T11:26:27;3.23;;;2.47;;
15699;SDS011;7950;42.744;23.174;2024-01-16T11:29:00;2.50;;;2.30;;
15699;SDS011;7950;42.744;23.174;2024-01-16T11:32:07;2.80;;;2.37;;
15699;SDS011;7950;42.744;23.174;2024-01-16T11:34:53;2.40;;;2.20;;
15699;SDS011;7950;42.744;23.174;2024-01-16T11:37:28;2.00;;;1.80;;
15699;SDS011;7950;42.744;23.174;2024-01-16T11:42:54;3.60;;;2.33;;
15699;SDS011;7950;42.744;23.174;2024-01-16T11:48:18;1.77;;;1.60;;
15699;SDS011;7950;42.744;23.174;2024-01-16T11:50:47;1.80;;;1.70;;
15699;SDS011;7950;42.744;23.174;2024-01-16T11:53:33;1.50;;;1.40;;
15699;SDS011;7950;42.744;23.174;2024-01-16T11:56:18;1.40;;;1.30;;
15699;SDS011;7950;42.744;23.174;2024-01-16T12:02:29;1.60;;;1.50;;
15699;SDS011;7950;42.744;23.174;2024-01-16T12:05:21;1.57;;;1.50;;
15699;SDS011;7950;42.744;23.174;2024-01-16T12:07:50;1.50;;;1.40;;
15699;SDS011;7950;42.744;23.174;2024-01-16T12:10:22;1.77;;;1.60;;
15699;SDS011;7950;42.744;23.174;2024-01-16T12:12:56;1.63;;;1.27;;
15699;SDS011;7950;42.744;23.174;2024-01-16T12:15:30;2.80;;;1.40;;
15699;SDS011;7950;42.744;23.174;2024-01-16T12:18:00;2.60;;;1.60;;
15699;SDS011;7950;42.744;23.174;2024-01-16T12:20:31;1.83;;;1.57;;
15699;SDS011;7950;42.744;23.174;2024-01-16T12:23:02;1.50;;;1.40;;
15699;SDS011;7950;42.744;23.174;2024-01-16T12:25:33;1.93;;;1.73;;
15699;SDS011;7950;42.744;23.174;2024-01-16T12:28:23;1.53;;;1.43;;
15699;SDS011;7950;42.744;23.174;2024-01-16T12:30:59;1.73;;;1.63;;
15699;SDS011;7950;42.744;23.174;2024-01-16T12:33:29;1.70;;;1.60;;
15699;SDS011;7950;42.744;23.174;2024-01-16T12:36:02;2.27;;;2.07;;
15699;SDS011;7950;42.744;23.174;2024-01-16T12:38:32;1.43;;;1.33;;
15699;SDS011;7950;42.744;23.174;2024-01-16T12:41:04;2.03;;;1.73;;
15699;SDS011;7950;42.744;23.174;2024-01-16T12:43:35;2.20;;;2.00;;
15699;SDS011;7950;42.744;23.174;2024-01-16T12:46:05;1.90;;;1.80;;
15699;SDS011;7950;42.744;23.174;2024-01-16T12:48:34;1.70;;;1.60;;
15699;SDS011;7950;42.744;23.174;2024-01-16T12:51:10;1.50;;;1.40;;
15699;SDS011;7950;42.744;23.174;2024-01-16T12:53:39;1.50;;;1.40;;
15699;SDS011;7950;42.744;23.174;2024-01-16T12:56:09;1.90;;;1.63;;
15699;SDS011;7950;42.744;23.174;2024-01-16T12:58:38;1.70;;;1.60;;
15699;SDS011;7950;42.744;23.174;2024-01-16T13:01:22;2.20;;;1.80;;
15699;SDS011;7950;42.744;23.174;2024-01-16T13:04:05;1.93;;;1.83;;
15699;SDS011;7950;42.744;23.174;2024-01-16T13:06:34;2.27;;;2.07;;
15699;SDS011;7950;42.744;23.174;2024-01-16T13:09:04;2.43;;;2.17;;
15699;SDS011;7950;42.744;23.174;2024-01-16T13:11:46;2.90;;;2.23;;
15699;SDS011;7950;42.744;23.174;2024-01-16T13:14:17;2.00;;;1.90;;
15699;SDS011;7950;42.744;23.174;2024-01-16T13:16:47;2.30;;;2.00;;
15699;SDS011;7950;42.744;23.174;2024-01-16T13:19:17;1.60;;;1.50;;
15699;SDS011;7950;42.744;23.174;2024-01-16T13:21:46;1.73;;;1.63;;
15699;SDS011;7950;42.744;23.174;2024-01-16T13:24:15;1.73;;;1.63;;
15699;SDS011;7950;42.744;23.174;2024-01-16T13:26:49;3.00;;;2.03;;
15699;SDS011;7950;42.744;23.174;2024-01-16T13:29:19;2.60;;;1.93;;
15699;SDS011;7950;42.744;23.174;2024-01-16T13:31:47;2.37;;;2.17;;
15699;SDS011;7950;42.744;23.174;2024-01-16T13:34:21;3.53;;;2.10;;
15699;SDS011;7950;42.744;23.174;2024-01-16T13:36:52;3.50;;;2.27;;
15699;SDS011;7950;42.744;23.174;2024-01-16T13:39:42;2.33;;;1.70;;
15699;SDS011;7950;42.744;23.174;2024-01-16T13:42:12;2.23;;;1.90;;
15699;SDS011;7950;42.744;23.174;2024-01-16T13:44:44;1.87;;;1.73;;
15699;SDS011;7950;42.744;23.174;2024-01-16T13:47:13;2.30;;;2.10;;
15699;SDS011;7950;42.744;23.174;2024-01-16T13:49:48;2.20;;;2.00;;
15699;SDS011;7950;42.744;23.174;2024-01-16T13:52:17;2.17;;;1.97;;
15699;SDS011;7950;42.744;23.174;2024-01-16T13:54:50;2.23;;;2.03;;
15699;SDS011;7950;42.744;23.174;2024-01-16T13:57:20;3.10;;;2.10;;
15699;SDS011;7950;42.744;23.174;2024-01-16T13:59:49;2.63;;;2.30;;
15699;SDS011;7950;42.744;23.174;2024-01-16T14:02:17;2.27;;;2.03;;
15699;SDS011;7950;42.744;23.174;2024-01-16T14:04:46;2.13;;;1.93;;
15699;SDS011;7950;42.744;23.174;2024-01-16T14:07:15;3.30;;;2.83;;
15699;SDS011;7950;42.744;23.174;2024-01-16T14:09:43;2.40;;;2.13;;
15699;SDS011;7950;42.744;23.174;2024-01-16T14:12:12;3.47;;;2.30;;
15699;SDS011;7950;42.744;23.174;2024-01-16T14:14:42;3.00;;;2.23;;
15699;SDS011;7950;42.744;23.174;2024-01-16T14:17:12;4.17;;;2.60;;
15699;SDS011;7950;42.744;23.174;2024-01-16T14:19:41;2.50;;;2.20;;
15699;SDS011;7950;42.744;23.174;2024-01-16T14:22:10;2.27;;;2.07;;
15699;SDS011;7950;42.744;23.174;2024-01-16T14:24:38;3.13;;;2.20;;
15699;SDS011;7950;42.744;23.174;2024-01-16T14:27:07;3.50;;;2.40;;
15699;SDS011;7950;42.744;23.174;2024-01-16T14:29:37;5.47;;;3.23;;
15699;SDS011;7950;42.744;23.174;2024-01-16T14:32:08;6.90;;;3.73;;
15699;SDS011;7950;42.744;23.174;2024-01-16T14:34:37;12.07;;;5.80;;
15699;SDS011;7950;42.744;23.174;2024-01-16T14:37:06;20.10;;;6.30;;
15699;SDS011;7950;42.744;23.174;2024-01-16T14:39:34;19.97;;;6.63;;
15699;SDS011;7950;42.744;23.174;2024-01-16T14:42:03;10.90;;;4.23;;
15699;SDS011;7950;42.744;23.174;2024-01-16T14:44:34;16.90;;;6.47;;
15699;SDS011;7950;42.744;23.174;2024-01-16T14:47:03;12.80;;;5.07;;
15699;SDS011;7950;42.744;23.174;2024-01-16T14:49:33;6.03;;;3.40;;
15699;SDS011;7950;42.744;23.174;2024-01-16T14:52:02;13.07;;;5.10;;
15699;SDS011;7950;42.744;23.174;2024-01-16T14:54:32;25.63;;;8.70;;
15699;SDS011;7950;42.744;23.174;2024-01-16T14:57:01;37.90;;;16.80;;
15699;SDS011;7950;42.744;23.174;2024-01-16T14:59:31;29.13;;;14.80;;
15699;SDS011;7950;42.744;23.174;2024-01-16T15:02:00;7.83;;;6.20;;
15699;SDS011;7950;42.744;23.174;2024-01-16T15:04:41;6.17;;;5.47;;
15699;SDS011;7950;42.744;23.174;2024-01-16T15:07:13;6.83;;;5.83;;
15699;SDS011;7950;42.744;23.174;2024-01-16T15:09:41;9.47;;;7.97;;
15699;SDS011;7950;42.744;23.174;2024-01-16T15:12:10;9.60;;;7.87;;
15699;SDS011;7950;42.744;23.174;2024-01-16T15:14:40;5.67;;;5.00;;